createdAt,value
2018-06-15T00:00:41.638Z,10.70
2018-06-15T00:03:10.890Z,11.33
2018-06-15T00:05:40.716Z,13.07
2018-06-15T00:08:10.299Z,13.60
2018-06-15T00:10:40.202Z,10.90
2018-06-15T00:13:09.914Z,10.17
2018-06-15T00:15:39.183Z,10.27
2018-06-15T00:18:08.342Z,11.23
2018-06-15T00:20:37.430Z,11.30
2018-06-15T00:23:06.679Z,14.73
2018-06-15T00:25:37.391Z,16.50
2018-06-15T00:28:06.715Z,14.20
2018-06-15T00:30:36.234Z,11.50
2018-06-15T00:33:05.747Z,12.20
2018-06-15T00:35:34.832Z,12.60
2018-06-15T00:38:04.510Z,13.67
2018-06-15T00:40:33.687Z,10.67
2018-06-15T00:43:02.990Z,14.23
2018-06-15T00:45:32.058Z,13.73
2018-06-15T00:48:01.215Z,12.13
2018-06-15T00:50:30.499Z,11.47
2018-06-15T00:53:00.048Z,12.93
2018-06-15T00:55:29.626Z,11.13
2018-06-15T00:57:59.899Z,14.30
2018-06-15T01:00:29.157Z,10.23
2018-06-15T01:02:58.603Z,16.00
2018-06-15T01:05:27.702Z,11.60
2018-06-15T01:07:57.610Z,12.23
2018-06-15T01:10:26.815Z,13.43
2018-06-15T01:12:56.594Z,12.73
2018-06-15T01:15:25.990Z,15.47
2018-06-15T01:17:55.491Z,15.97
2018-06-15T01:20:24.630Z,14.17
2018-06-15T01:22:53.934Z,12.47
2018-06-15T01:25:23.059Z,13.77
2018-06-15T01:27:52.550Z,14.77
2018-06-15T01:30:21.718Z,12.60
2018-06-15T01:32:53.488Z,15.47
2018-06-15T01:35:22.646Z,14.93
2018-06-15T01:37:53.897Z,14.23
2018-06-15T01:40:23.146Z,13.10
2018-06-15T01:42:52.267Z,15.20
2018-06-15T01:45:21.842Z,13.67
2018-06-15T01:47:51.118Z,11.37
2018-06-15T01:50:20.255Z,11.77
2018-06-15T01:52:49.873Z,13.83
2018-06-15T01:55:19.114Z,15.60
2018-06-15T01:57:48.354Z,12.13
2018-06-15T02:00:17.640Z,12.83
2018-06-15T02:02:46.858Z,14.07
2018-06-15T02:05:16.634Z,17.50
2018-06-15T02:07:46.144Z,12.83
2018-06-15T02:10:15.775Z,13.30
2018-06-15T02:12:46.475Z,15.10
2018-06-15T02:15:15.915Z,14.03
2018-06-15T02:17:45.142Z,13.83
2018-06-15T02:20:14.327Z,12.00
2018-06-15T02:22:44.387Z,13.10
2018-06-15T02:25:13.492Z,12.77
2018-06-15T02:27:43.287Z,13.17
2018-06-15T02:30:13.331Z,18.70
2018-06-15T02:32:43.896Z,10.77
2018-06-15T02:35:13.167Z,11.00
2018-06-15T02:37:42.510Z,13.73
2018-06-15T02:40:11.963Z,10.23
2018-06-15T02:42:41.487Z,14.50
2018-06-15T02:45:12.545Z,13.67
2018-06-15T02:47:42.226Z,13.40
2018-06-15T02:50:11.462Z,11.90
2018-06-15T02:52:43.714Z,12.30
2018-06-15T02:55:12.887Z,14.17
2018-06-15T02:57:42.331Z,13.30
2018-06-15T03:00:11.621Z,15.00
2018-06-15T03:02:40.814Z,13.73
2018-06-15T03:05:10.638Z,19.20
2018-06-15T03:07:39.973Z,25.60
2018-06-15T03:10:09.055Z,10.63
2018-06-15T03:12:38.173Z,15.00
2018-06-15T03:15:07.815Z,16.00
2018-06-15T03:17:37.146Z,13.43
2018-06-15T03:20:06.686Z,15.07
2018-06-15T03:22:35.995Z,14.17
2018-06-15T03:25:05.407Z,14.13
2018-06-15T03:27:34.595Z,11.93
2018-06-15T03:30:03.996Z,14.80
2018-06-15T03:32:34.236Z,13.10
2018-06-15T03:35:03.480Z,14.30
2018-06-15T03:37:32.732Z,18.00
2018-06-15T03:40:01.905Z,13.13
2018-06-15T03:42:31.024Z,16.00
2018-06-15T03:45:00.731Z,18.20
2018-06-15T03:47:29.877Z,17.03
2018-06-15T03:49:59.275Z,12.80
2018-06-15T03:52:28.355Z,13.80
2018-06-15T03:54:57.650Z,12.27
2018-06-15T03:57:28.795Z,11.50
2018-06-15T03:59:57.951Z,16.57
2018-06-15T04:02:27.448Z,14.70
2018-06-15T04:04:57.247Z,11.70
2018-06-15T04:07:26.903Z,12.20
2018-06-15T04:09:56.134Z,18.20
2018-06-15T04:12:25.883Z,16.73
2018-06-15T04:14:55.555Z,17.83
2018-06-15T04:17:24.658Z,12.27
2018-06-15T04:19:54.308Z,12.43
2018-06-15T04:22:23.562Z,13.50
2018-06-15T04:24:52.739Z,12.50
2018-06-15T04:27:22.307Z,10.57
2018-06-15T04:29:51.542Z,15.53
2018-06-15T04:32:21.838Z,12.87
2018-06-15T04:34:51.123Z,14.03
2018-06-15T04:37:20.318Z,13.83
2018-06-15T04:39:49.623Z,14.37
2018-06-15T04:42:18.747Z,13.53
2018-06-15T04:44:47.601Z,14.73
2018-06-15T04:47:17.280Z,10.33
2018-06-15T04:49:47.016Z,12.30
2018-06-15T04:52:16.931Z,10.60
2018-06-15T04:54:46.142Z,17.50
2018-06-15T04:57:15.851Z,19.30
2018-06-15T04:59:44.943Z,12.30
2018-06-15T05:02:14.683Z,9.87
2018-06-15T05:04:43.751Z,16.33
2018-06-15T05:07:12.826Z,12.60
2018-06-15T05:09:41.931Z,14.23
2018-06-15T05:12:11.295Z,11.57
2018-06-15T05:14:40.790Z,11.30
2018-06-15T05:17:09.539Z,9.60
2018-06-15T05:19:38.574Z,11.70
2018-06-15T05:22:07.694Z,13.50
2018-06-15T05:24:37.608Z,11.40
2018-06-15T05:27:09.371Z,17.10
2018-06-15T05:29:38.602Z,11.67
2018-06-15T05:32:07.771Z,11.57
2018-06-15T05:34:37.040Z,14.23
2018-06-15T05:37:06.471Z,9.67
2018-06-15T05:39:36.078Z,10.90
2018-06-15T05:42:05.223Z,9.17
2018-06-15T05:44:34.354Z,14.70
2018-06-15T05:47:03.467Z,10.10
2018-06-15T05:49:32.723Z,10.10
2018-06-15T05:52:01.894Z,14.67
2018-06-15T05:54:30.964Z,12.07
2018-06-15T05:57:00.071Z,10.70
2018-06-15T05:59:29.170Z,13.30
2018-06-15T06:01:58.298Z,12.93
2018-06-15T06:04:27.414Z,10.60
2018-06-15T06:06:56.514Z,11.83
2018-06-15T06:09:27.212Z,10.40
2018-06-15T06:11:56.311Z,17.17
2018-06-15T06:14:25.380Z,9.93
2018-06-15T06:16:54.462Z,14.30
2018-06-15T06:19:23.558Z,11.03
2018-06-15T06:21:52.747Z,13.33
2018-06-15T06:24:21.859Z,14.70
2018-06-15T06:26:50.986Z,14.67
2018-06-15T06:29:20.766Z,12.10
2018-06-15T06:31:49.883Z,10.50
2018-06-15T06:34:18.891Z,13.63
2018-06-15T06:36:47.957Z,13.17
2018-06-15T06:39:17.054Z,12.90
2018-06-15T06:41:46.198Z,12.53
2018-06-15T06:44:15.274Z,12.57
2018-06-15T06:46:44.374Z,16.97
2018-06-15T06:49:13.808Z,12.97
2018-06-15T06:51:43.530Z,10.37
2018-06-15T06:54:12.715Z,13.67
2018-06-15T06:56:42.432Z,13.10
2018-06-15T06:59:12.332Z,17.63
2018-06-15T07:01:41.758Z,14.27
2018-06-15T07:04:12.528Z,12.83
2018-06-15T07:06:41.603Z,13.30
2018-06-15T07:09:12.387Z,10.60
2018-06-15T07:11:41.442Z,11.77
2018-06-15T07:14:11.355Z,12.80
2018-06-15T07:16:41.242Z,13.40
2018-06-15T07:19:10.290Z,13.03
2018-06-15T07:21:40.286Z,10.90
2018-06-15T07:24:09.762Z,14.83
2018-06-15T07:26:38.826Z,15.50
2018-06-15T07:29:08.223Z,14.50
2018-06-15T07:31:37.380Z,11.90
2018-06-15T07:34:06.535Z,11.80
2018-06-15T07:36:35.635Z,16.20
2018-06-15T07:39:07.941Z,13.37
2018-06-15T07:41:36.999Z,12.70
2018-06-15T07:44:06.108Z,16.30
2018-06-15T07:46:35.231Z,12.73
2018-06-15T07:49:04.362Z,12.60
2018-06-15T07:51:33.439Z,11.97
2018-06-15T07:54:05.847Z,13.23
2018-06-15T07:56:34.944Z,10.90
2018-06-15T07:59:04.082Z,12.00
2018-06-15T08:01:33.159Z,13.70
2018-06-15T08:04:07.637Z,14.07
2018-06-15T08:06:36.706Z,15.80
2018-06-15T08:09:08.811Z,11.97
2018-06-15T08:11:38.291Z,15.43
2018-06-15T08:14:07.798Z,14.97
2018-06-15T08:16:36.882Z,13.93
2018-06-15T08:19:06.771Z,12.20
2018-06-15T08:21:35.846Z,18.53
2018-06-15T08:24:04.623Z,14.27
2018-06-15T08:26:34.038Z,13.30
2018-06-15T08:29:03.147Z,13.33
2018-06-15T08:31:32.430Z,23.03
2018-06-15T08:34:01.559Z,14.33
2018-06-15T08:36:30.907Z,12.33
2018-06-15T08:39:00.746Z,11.77
2018-06-15T08:41:29.822Z,11.30
2018-06-15T08:43:59.774Z,11.67
2018-06-15T08:46:28.862Z,12.57
2018-06-15T08:48:58.378Z,14.77
2018-06-15T08:51:27.510Z,16.67
2018-06-15T08:53:56.887Z,25.97
2018-06-15T08:56:26.011Z,14.87
2018-06-15T08:58:55.646Z,10.40
2018-06-15T09:01:24.770Z,11.90
2018-06-15T09:03:53.866Z,14.87
2018-06-15T09:06:23.186Z,11.10
2018-06-15T09:08:52.367Z,13.93
2018-06-15T09:11:22.995Z,10.93
2018-06-15T09:13:52.091Z,14.93
2018-06-15T09:16:21.887Z,13.37
2018-06-15T09:18:51.010Z,10.70
2018-06-15T09:21:20.167Z,14.90
2018-06-15T09:23:49.441Z,12.00
2018-06-15T09:26:19.086Z,13.40
2018-06-15T09:28:48.422Z,13.93
2018-06-15T09:31:17.541Z,12.93
2018-06-15T09:33:46.703Z,9.83
2018-06-15T09:36:16.407Z,12.50
2018-06-15T09:38:46.058Z,14.50
2018-06-15T09:41:15.439Z,12.17
2018-06-15T09:43:44.666Z,13.07
2018-06-15T09:46:14.187Z,11.30
2018-06-15T09:48:44.836Z,11.13
2018-06-15T09:51:15.418Z,12.13
2018-06-15T09:53:45.418Z,11.63
2018-06-15T09:56:14.627Z,15.20
2018-06-15T09:58:43.735Z,10.37
2018-06-15T10:01:13.097Z,12.33
2018-06-15T10:03:42.166Z,10.47
2018-06-15T10:06:11.304Z,13.97
2018-06-15T10:08:40.374Z,10.33
2018-06-15T10:11:09.479Z,10.43
2018-06-15T10:13:38.530Z,11.07
2018-06-15T10:16:07.948Z,10.93
2018-06-15T10:18:37.420Z,10.57
2018-06-15T10:21:06.613Z,11.40
2018-06-15T10:23:36.290Z,13.10
2018-06-15T10:26:05.390Z,14.20
2018-06-15T10:28:34.495Z,11.40
2018-06-15T10:31:04.381Z,11.83
2018-06-15T10:33:33.674Z,11.70
2018-06-15T10:36:02.834Z,11.70
2018-06-15T10:38:31.936Z,11.80
2018-06-15T10:41:01.043Z,14.23
2018-06-15T10:43:30.151Z,14.87
2018-06-15T10:45:59.271Z,11.93
2018-06-15T10:48:28.358Z,11.27
2018-06-15T10:50:57.434Z,11.03
2018-06-15T10:53:26.082Z,15.17
2018-06-15T10:55:55.579Z,12.30
2018-06-15T10:58:24.655Z,10.43
2018-06-15T11:00:53.783Z,13.33
2018-06-15T11:03:22.850Z,12.37
2018-06-15T11:05:51.934Z,11.43
2018-06-15T11:08:21.059Z,13.43
2018-06-15T11:10:50.160Z,11.40
2018-06-15T11:13:19.320Z,12.37
2018-06-15T11:15:48.411Z,13.53
2018-06-15T11:18:17.474Z,12.17
2018-06-15T11:20:47.567Z,10.87
2018-06-15T11:23:16.674Z,12.10
2018-06-15T11:25:46.344Z,11.03
2018-06-15T11:28:15.422Z,13.50
2018-06-15T11:30:44.539Z,11.47
2018-06-15T11:33:13.826Z,11.97
2018-06-15T11:35:43.723Z,12.23
2018-06-15T11:38:12.850Z,11.83
2018-06-15T11:40:42.034Z,11.37
2018-06-15T11:43:11.279Z,11.43
2018-06-15T11:45:40.771Z,11.07
2018-06-15T11:48:10.358Z,12.43
2018-06-15T11:50:39.459Z,11.23
2018-06-15T11:53:08.740Z,14.70
2018-06-15T11:55:38.150Z,11.40
2018-06-15T11:58:08.118Z,10.70
2018-06-15T12:00:37.207Z,11.33
2018-06-15T12:03:06.299Z,12.10
2018-06-15T12:05:36.983Z,16.20
2018-06-15T12:08:06.154Z,10.60
2018-06-15T12:10:35.723Z,9.67
2018-06-15T12:13:05.166Z,11.53
2018-06-15T12:15:35.979Z,10.77
2018-06-15T12:18:05.238Z,11.23
2018-06-15T12:20:34.343Z,10.37
2018-06-15T12:23:03.675Z,9.83
2018-06-15T12:25:32.792Z,10.67
2018-06-15T12:28:02.778Z,11.70
2018-06-15T12:30:32.367Z,10.40
2018-06-15T12:33:01.861Z,9.83
2018-06-15T12:35:30.986Z,10.57
2018-06-15T12:38:00.096Z,10.50
2018-06-15T12:40:29.179Z,10.07
2018-06-15T12:42:58.435Z,12.07
2018-06-15T12:45:28.650Z,11.40
2018-06-15T12:47:58.130Z,9.43
2018-06-15T12:50:27.226Z,10.70
2018-06-15T12:52:56.315Z,9.30
2018-06-15T12:55:25.553Z,11.10
2018-06-15T12:57:54.691Z,9.57
2018-06-15T13:00:23.776Z,9.43
2018-06-15T13:02:52.858Z,10.53
2018-06-15T13:05:21.964Z,9.30
2018-06-15T13:07:51.081Z,14.97
2018-06-15T13:10:20.151Z,9.87
2018-06-15T13:12:49.228Z,18.40
2018-06-15T13:15:18.362Z,12.37
2018-06-15T13:17:47.632Z,10.00
2018-06-15T13:20:17.287Z,9.93
2018-06-15T13:22:46.607Z,10.47
2018-06-15T13:25:15.791Z,10.10
2018-06-15T13:27:44.998Z,9.83
2018-06-15T13:30:14.309Z,11.37
2018-06-15T13:32:43.538Z,9.43
2018-06-15T13:35:12.746Z,14.50
2018-06-15T13:37:42.042Z,9.40
2018-06-15T13:40:10.994Z,10.50
2018-06-15T13:42:40.084Z,10.10
2018-06-15T13:45:09.149Z,9.43
2018-06-15T13:47:38.236Z,8.77
2018-06-15T13:50:07.318Z,8.93
2018-06-15T13:52:36.507Z,9.60
2018-06-15T13:55:05.628Z,9.43
2018-06-15T13:57:34.695Z,9.37
2018-06-15T14:00:03.778Z,9.90
2018-06-15T14:02:32.931Z,10.87
2018-06-15T14:05:01.999Z,10.57
2018-06-15T14:07:31.834Z,11.13
2018-06-15T14:10:00.942Z,12.13
2018-06-15T14:12:30.224Z,11.23
2018-06-15T14:14:59.089Z,11.00
2018-06-15T14:17:28.199Z,13.63
2018-06-15T14:19:57.323Z,9.70
2018-06-15T14:22:26.418Z,10.17
2018-06-15T14:24:56.008Z,11.83
2018-06-15T14:27:25.104Z,9.47
2018-06-15T14:29:54.228Z,9.13
2018-06-15T14:32:23.310Z,11.80
2018-06-15T14:34:51.982Z,10.27
2018-06-15T14:37:21.803Z,8.17
2018-06-15T14:39:50.882Z,9.93
2018-06-15T14:42:19.969Z,9.93
2018-06-15T14:44:49.046Z,10.33
2018-06-15T14:47:18.156Z,8.97
2018-06-15T14:49:47.220Z,9.27
2018-06-15T14:52:16.318Z,10.30
2018-06-15T14:54:45.419Z,9.53
2018-06-15T14:57:14.515Z,10.63
2018-06-15T14:59:44.590Z,10.17
2018-06-15T15:02:13.740Z,12.13
2018-06-15T15:04:43.530Z,9.23
2018-06-15T15:07:12.632Z,10.87
2018-06-15T15:09:42.619Z,10.30
2018-06-15T15:12:11.547Z,10.93
2018-06-15T15:14:40.663Z,8.90
2018-06-15T15:17:10.030Z,9.70
2018-06-15T15:19:39.346Z,12.67
2018-06-15T15:22:09.346Z,9.37
2018-06-15T15:24:38.478Z,12.17
2018-06-15T15:27:07.616Z,11.37
2018-06-15T15:29:36.962Z,9.43
2018-06-15T15:32:06.215Z,11.30
2018-06-15T15:34:36.519Z,9.43
2018-06-15T15:37:05.651Z,12.87
2018-06-15T15:39:34.780Z,9.97
2018-06-15T15:42:03.895Z,10.00
2018-06-15T15:44:32.992Z,16.97
2018-06-15T15:47:02.227Z,9.33
2018-06-15T15:49:31.304Z,9.77
2018-06-15T15:52:00.407Z,10.90
2018-06-15T15:54:29.483Z,9.07
2018-06-15T15:56:59.058Z,11.47
2018-06-15T15:59:28.198Z,8.43
2018-06-15T16:01:57.287Z,8.93
2018-06-15T16:04:26.342Z,8.97
2018-06-15T16:06:55.434Z,9.20
2018-06-15T16:09:24.502Z,9.10
2018-06-15T16:11:53.974Z,8.90
2018-06-15T16:14:23.068Z,9.37
2018-06-15T16:16:52.207Z,9.20
2018-06-15T16:19:21.359Z,13.03
2018-06-15T16:21:50.463Z,10.13
2018-06-15T16:24:19.534Z,11.00
2018-06-15T16:26:48.796Z,11.07
2018-06-15T16:29:17.903Z,14.73
2018-06-15T16:31:47.003Z,9.57
2018-06-15T16:34:16.220Z,9.80
2018-06-15T16:36:45.303Z,9.93
2018-06-15T16:39:14.882Z,10.73
2018-06-15T16:41:44.042Z,12.90
2018-06-15T16:44:13.115Z,10.73
2018-06-15T16:46:42.194Z,10.63
2018-06-15T16:49:11.270Z,12.13
2018-06-15T16:51:41.264Z,13.30
2018-06-15T16:54:10.414Z,10.20
2018-06-15T16:56:39.522Z,9.50
2018-06-15T16:59:09.414Z,11.47
2018-06-15T17:01:38.479Z,10.87
2018-06-15T17:04:07.686Z,10.23
2018-06-15T17:06:37.708Z,9.57
2018-06-15T17:09:08.994Z,15.90
2018-06-15T17:11:38.135Z,9.83
2018-06-15T17:14:07.451Z,9.90
2018-06-15T17:16:36.586Z,11.23
2018-06-15T17:19:05.759Z,10.77
2018-06-15T17:21:34.869Z,9.93
2018-06-15T17:24:03.999Z,10.57
2018-06-15T17:26:33.198Z,8.83
2018-06-15T17:29:02.320Z,10.00
2018-06-15T17:31:31.431Z,18.30
2018-06-15T17:34:00.704Z,9.83
2018-06-15T17:36:29.771Z,8.77
2018-06-15T17:38:58.894Z,8.67
2018-06-15T17:41:28.108Z,10.77
2018-06-15T17:43:57.866Z,11.00
2018-06-15T17:46:26.795Z,11.13
2018-06-15T17:48:56.095Z,12.90
2018-06-15T17:51:25.149Z,10.03
2018-06-15T17:53:55.274Z,11.67
2018-06-15T17:56:24.991Z,11.03
2018-06-15T17:58:54.615Z,10.37
2018-06-15T18:01:23.866Z,9.63
2018-06-15T18:03:53.391Z,9.83
2018-06-15T18:06:22.278Z,10.30
2018-06-15T18:08:52.333Z,9.77
2018-06-15T18:11:21.938Z,8.77
2018-06-15T18:13:51.835Z,11.10
2018-06-15T18:16:20.987Z,13.07
2018-06-15T18:18:50.202Z,12.60
2018-06-15T18:21:19.311Z,9.37
2018-06-15T18:23:48.430Z,10.17
2018-06-15T18:26:17.531Z,9.67
2018-06-15T18:28:46.585Z,10.50
2018-06-15T18:31:15.719Z,10.80
2018-06-15T18:33:44.805Z,12.33
2018-06-15T18:36:13.926Z,13.03
2018-06-15T18:38:43.606Z,16.37
2018-06-15T18:41:12.827Z,10.63
2018-06-15T18:43:42.032Z,9.97
2018-06-15T18:46:11.082Z,10.30
2018-06-15T18:48:40.188Z,10.40
2018-06-15T18:51:09.354Z,10.00
2018-06-15T18:53:38.423Z,10.50
2018-06-15T18:56:08.442Z,11.67
2018-06-15T18:58:37.918Z,10.97
2018-06-15T19:01:07.352Z,10.00
2018-06-15T19:03:36.523Z,12.63
2018-06-15T19:06:05.687Z,10.83
2018-06-15T19:08:35.519Z,12.57
2018-06-15T19:11:05.122Z,16.40
2018-06-15T19:13:34.382Z,13.87
2018-06-15T19:16:03.601Z,13.97
2018-06-15T19:18:32.763Z,11.37
2018-06-15T19:21:01.982Z,18.50
2018-06-15T19:23:30.818Z,15.80
2018-06-15T19:26:01.463Z,16.33
2018-06-15T19:28:32.178Z,18.20
2018-06-15T19:31:01.994Z,15.80
2018-06-15T19:33:31.203Z,16.43
2018-06-15T19:36:00.019Z,17.37
2018-06-15T19:38:29.501Z,14.27
2018-06-15T19:40:58.574Z,16.20
2018-06-15T19:43:28.015Z,14.07
2018-06-15T19:45:57.108Z,15.77
2018-06-15T19:48:26.743Z,19.50
2018-06-15T19:50:57.198Z,14.13
2018-06-15T19:53:26.302Z,19.40
2018-06-15T19:55:55.125Z,16.70
2018-06-15T19:58:24.227Z,17.30
2018-06-15T20:00:53.771Z,19.57
2018-06-15T20:03:22.913Z,13.83
2018-06-15T20:05:52.548Z,21.10
2018-06-15T20:08:22.094Z,16.60
2018-06-15T20:10:51.206Z,20.83
2018-06-15T20:13:20.731Z,17.67
2018-06-15T20:15:49.805Z,18.27
2018-06-15T20:18:19.271Z,20.03
2018-06-15T20:20:48.484Z,18.23
2018-06-15T20:23:17.930Z,16.57
2018-06-15T20:25:47.247Z,22.53
2018-06-15T20:28:16.215Z,16.67
2018-06-15T20:30:44.959Z,16.83
2018-06-15T20:33:14.585Z,17.10
2018-06-15T20:35:44.479Z,15.00
2018-06-15T20:38:15.080Z,24.03
2018-06-15T20:40:44.147Z,17.63
2018-06-15T20:43:13.279Z,16.20
2018-06-15T20:45:43.927Z,17.80
2018-06-15T20:48:13.141Z,19.90
2018-06-15T20:50:42.198Z,18.00
2018-06-15T20:53:11.300Z,15.83
2018-06-15T20:55:40.372Z,20.10
2018-06-15T20:58:09.518Z,17.90
2018-06-15T21:00:38.717Z,18.10
2018-06-15T21:03:07.794Z,22.77
2018-06-15T21:05:37.699Z,17.80
2018-06-15T21:08:07.054Z,22.03
2018-06-15T21:10:36.686Z,17.70
2018-06-15T21:13:06.711Z,19.13
2018-06-15T21:15:36.386Z,16.70
2018-06-15T21:18:06.314Z,21.30
2018-06-15T21:20:36.222Z,19.47
2018-06-15T21:23:06.150Z,16.10
2018-06-15T21:25:36.035Z,21.53
2018-06-15T21:28:05.737Z,21.33
2018-06-15T21:30:34.916Z,19.80
2018-06-15T21:33:04.043Z,18.20
2018-06-15T21:35:33.587Z,20.40
2018-06-15T21:38:03.219Z,21.40
2018-06-15T21:40:32.337Z,29.73
2018-06-15T21:43:01.491Z,28.17
2018-06-15T21:45:30.621Z,21.20
2018-06-15T21:48:00.488Z,22.77
2018-06-15T21:50:30.590Z,19.67
2018-06-15T21:52:59.706Z,30.27
2018-06-15T21:55:29.503Z,30.30
2018-06-15T21:57:59.606Z,25.87
2018-06-15T22:00:29.594Z,24.77
2018-06-15T22:02:59.228Z,29.63
2018-06-15T22:05:28.387Z,29.97
2018-06-15T22:07:58.175Z,31.10
2018-06-15T22:10:27.352Z,25.70
2018-06-15T22:12:57.271Z,26.83
2018-06-15T22:15:26.872Z,25.10
2018-06-15T22:17:55.978Z,22.00
2018-06-15T22:20:25.250Z,28.30
2018-06-15T22:22:54.426Z,25.67
2018-06-15T22:25:24.326Z,26.37
2018-06-15T22:27:53.403Z,28.37
2018-06-15T22:30:22.516Z,28.50
2018-06-15T22:32:51.670Z,36.00
2018-06-15T22:35:20.735Z,25.87
2018-06-15T22:37:49.827Z,33.13
2018-06-15T22:40:18.895Z,34.63
2018-06-15T22:42:48.115Z,25.07
2018-06-15T22:45:17.248Z,28.10
2018-06-15T22:47:46.350Z,29.80
2018-06-15T22:50:15.450Z,28.30
2018-06-15T22:52:44.542Z,24.40
2018-06-15T22:55:13.622Z,27.90
2018-06-15T22:57:42.765Z,26.57
2018-06-15T23:00:17.297Z,30.50
2018-06-15T23:02:46.790Z,26.20
2018-06-15T23:05:15.906Z,25.13
2018-06-15T23:07:44.983Z,29.63
2018-06-15T23:10:14.623Z,23.00
2018-06-15T23:12:43.689Z,23.53
2018-06-15T23:15:12.978Z,25.17
2018-06-15T23:17:42.072Z,24.13
2018-06-15T23:20:11.138Z,25.00
2018-06-15T23:22:40.216Z,28.57
2018-06-15T23:25:09.763Z,29.00
2018-06-15T23:27:38.871Z,22.67
2018-06-15T23:30:07.942Z,25.37
2018-06-15T23:32:37.127Z,24.30
2018-06-15T23:35:06.243Z,30.80
2018-06-15T23:37:35.338Z,29.00
2018-06-15T23:40:04.662Z,21.90
2018-06-15T23:42:33.742Z,25.50
2018-06-15T23:45:02.383Z,25.20
2018-06-15T23:47:31.511Z,26.57
2018-06-15T23:50:00.685Z,24.40
2018-06-15T23:52:29.813Z,28.17
2018-06-15T23:54:58.941Z,29.60
2018-06-15T23:57:28.028Z,24.53
2018-06-15T23:59:57.102Z,28.77
